Time;durP1;ratioP1;P1;durP2;ratioP2;P2;SDS_P1;SDS_P2;PMS_P1;PMS_P2;Temp;Humidity;BMP_temperature;BMP_pressure;BME280_temperature;BME280_humidity;BME280_pressure;Samples;Min_cycle;Max_cycle;Signal;HPM_P1;HPM_P2
2022/07/08 00:00:38;;;;;;;11.73;10.02;;;16.20;99.90;;;;;;5053311;28;20021;-76
2022/07/08 00:03:04;;;;;;;11.57;10.27;;;16.20;99.90;;;;;;5053647;28;20058;-70
2022/07/08 00:05:30;;;;;;;11.35;10.35;;;16.20;99.90;;;;;;5052270;28;20036;-70
2022/07/08 00:07:56;;;;;;;12.05;10.95;;;16.10;99.90;;;;;;5053350;28;20062;-76
2022/07/08 00:10:22;;;;;;;12.15;10.52;;;16.10;99.90;;;;;;5053250;28;20159;-75
2022/07/08 00:12:48;;;;;;;13.50;9.80;;;16.20;99.90;;;;;;5053366;28;20025;-76
2022/07/08 00:15:13;;;;;;;10.88;9.80;;;16.20;99.90;;;;;;5053036;28;20021;-70
2022/07/08 00:17:39;;;;;;;11.55;10.40;;;16.20;99.90;;;;;;5052125;28;20027;-76
2022/07/08 00:20:09;;;;;;;11.13;10.15;;;16.20;99.90;;;;;;5053293;28;20025;-76
2022/07/08 00:22:35;;;;;;;10.95;9.65;;;16.20;99.90;;;;;;5053419;28;20032;-76
2022/07/08 00:25:01;;;;;;;11.07;9.98;;;16.20;99.90;;;;;;5052831;28;20112;-76
2022/07/08 00:27:27;;;;;;;11.35;10.25;;;16.20;99.90;;;;;;5053395;28;20056;-75
2022/07/08 00:29:52;;;;;;;11.65;10.55;;;16.20;99.90;;;;;;5052912;28;20049;-76
2022/07/08 00:32:19;;;;;;;11.05;9.93;;;16.10;99.90;;;;;;5053327;28;20036;-76
2022/07/08 00:34:44;;;;;;;11.93;10.68;;;16.10;99.90;;;;;;5052971;28;20067;-69
2022/07/08 00:37:10;;;;;;;11.48;10.48;;;16.10;99.90;;;;;;5053160;28;20049;-76
2022/07/08 00:39:37;;;;;;;13.98;10.43;;;16.00;99.90;;;;;;5053089;28;20055;-70
2022/07/08 00:42:03;;;;;;;12.00;10.75;;;16.00;99.90;;;;;;5053119;28;20023;-75
2022/07/08 00:44:29;;;;;;;14.18;11.07;;;16.00;99.90;;;;;;5041845;28;20095;-70
2022/07/08 00:46:55;;;;;;;12.23;11.00;;;16.00;99.90;;;;;;5032082;28;20022;-70
2022/07/08 00:49:21;;;;;;;12.00;10.27;;;15.90;99.90;;;;;;5031789;28;20064;-76
2022/07/08 00:51:47;;;;;;;11.93;10.35;;;15.90;99.90;;;;;;5033842;28;20106;-75
2022/07/08 00:54:16;;;;;;;11.73;10.55;;;15.90;99.90;;;;;;5049331;28;20017;-76
2022/07/08 00:56:42;;;;;;;11.55;10.55;;;15.90;99.90;;;;;;5056939;28;20478;-76
2022/07/08 00:59:09;;;;;;;11.93;10.25;;;15.90;99.90;;;;;;5055918;28;20462;-70
2022/07/08 01:01:35;;;;;;;11.27;10.18;;;15.90;99.90;;;;;;5056630;28;20024;-76
2022/07/08 01:04:02;;;;;;;11.93;10.70;;;15.80;99.90;;;;;;5056271;28;20025;-70
2022/07/08 01:06:28;;;;;;;12.23;10.93;;;15.80;99.90;;;;;;5056623;28;20029;-70
2022/07/08 01:08:54;;;;;;;21.13;11.82;;;15.70;99.90;;;;;;5055120;28;20036;-70
2022/07/08 01:11:20;;;;;;;12.50;11.35;;;15.70;99.90;;;;;;5056566;28;20106;-76
2022/07/08 01:13:47;;;;;;;14.02;12.52;;;15.60;99.90;;;;;;5056352;28;20060;-70
2022/07/08 01:16:13;;;;;;;12.93;11.57;;;15.60;99.90;;;;;;5056175;28;20049;-76
2022/07/08 01:18:40;;;;;;;14.25;12.63;;;15.60;99.90;;;;;;5056433;28;20021;-70
2022/07/08 01:21:05;;;;;;;12.43;11.13;;;15.50;99.90;;;;;;5056153;28;20021;-70
2022/07/08 01:23:31;;;;;;;12.23;11.02;;;15.60;99.90;;;;;;5056153;28;20021;-70
2022/07/08 01:25:59;;;;;;;13.55;12.32;;;15.60;99.90;;;;;;5054617;28;20116;-69
2022/07/08 01:28:25;;;;;;;13.70;12.20;;;15.60;99.90;;;;;;5056310;28;20407;-71
2022/07/08 01:30:50;;;;;;;13.55;12.27;;;15.60;99.90;;;;;;5055855;28;20061;-76
2022/07/08 01:33:16;;;;;;;13.27;11.68;;;15.60;99.90;;;;;;5056153;28;20364;-76
2022/07/08 01:35:42;;;;;;;13.55;11.95;;;15.60;99.90;;;;;;5056023;28;20051;-76
2022/07/08 01:38:08;;;;;;;12.70;10.98;;;15.60;99.90;;;;;;5055895;28;20021;-70
2022/07/08 01:40:34;;;;;;;12.23;11.13;;;15.50;99.90;;;;;;5054665;28;20059;-76
2022/07/08 01:42:59;;;;;;;11.48;10.38;;;15.50;99.90;;;;;;5056040;28;20107;-76
2022/07/08 01:45:25;;;;;;;11.93;10.75;;;15.50;99.90;;;;;;5055757;28;20025;-70
2022/07/08 01:47:51;;;;;;;10.60;9.65;;;15.50;99.90;;;;;;5055758;28;20219;-71
2022/07/08 01:50:17;;;;;;;11.68;9.77;;;15.40;99.90;;;;;;5054339;28;20060;-69
2022/07/08 01:52:42;;;;;;;10.38;9.38;;;15.40;99.90;;;;;;5054478;28;20090;-70
2022/07/08 01:55:08;;;;;;;10.00;8.85;;;15.40;99.90;;;;;;5055615;28;20401;-76
2022/07/08 01:57:34;;;;;;;15.35;8.80;;;15.30;99.90;;;;;;5054400;28;20025;-70
2022/07/08 02:00:00;;;;;;;9.57;8.57;;;15.30;99.90;;;;;;5055847;28;20021;-70
2022/07/08 02:02:26;;;;;;;10.13;8.10;;;15.30;99.90;;;;;;5055206;28;20025;-70
2022/07/08 02:04:52;;;;;;;9.93;8.65;;;15.30;99.90;;;;;;5054280;28;20025;-70
2022/07/08 02:07:18;;;;;;;8.95;8.05;;;15.30;99.90;;;;;;5054362;28;20441;-70
2022/07/08 02:09:43;;;;;;;10.18;8.20;;;15.30;99.90;;;;;;5055523;28;20524;-70
2022/07/08 02:12:19;;;;;;;10.65;7.80;;;15.30;99.90;;;;;;5055581;28;20064;-71
2022/07/08 02:15:03;;;;;;;9.27;8.30;;;15.30;99.90;;;;;;5055433;28;20017;-70
2022/07/08 02:17:46;;;;;;;10.60;7.90;;;15.30;99.90;;;;;;5055588;28;20024;-70
2022/07/08 02:20:13;;;;;;;10.43;8.32;;;15.30;99.90;;;;;;5054040;28;20028;-70
2022/07/08 02:22:40;;;;;;;9.07;7.40;;;15.20;99.90;;;;;;5053947;28;20021;-70
2022/07/08 02:25:06;;;;;;;9.75;7.85;;;15.30;99.90;;;;;;5055276;28;20477;-76
2022/07/08 02:27:32;;;;;;;8.88;7.55;;;15.20;99.90;;;;;;5055190;28;20017;-70
2022/07/08 02:29:58;;;;;;;9.32;7.97;;;15.20;99.90;;;;;;5054390;28;20103;-70
2022/07/08 02:32:23;;;;;;;9.13;7.22;;;15.20;99.90;;;;;;5053897;28;20048;-70
2022/07/08 02:34:49;;;;;;;7.20;6.50;;;15.20;99.90;;;;;;5053719;28;20090;-70
2022/07/08 02:37:15;;;;;;;8.35;6.85;;;15.20;99.90;;;;;;5055123;28;20028;-76
2022/07/08 02:39:41;;;;;;;8.45;7.03;;;15.30;99.90;;;;;;5055141;28;20047;-71
2022/07/08 02:42:08;;;;;;;11.52;7.85;;;15.20;99.90;;;;;;5055112;28;20028;-75
2022/07/08 02:44:35;;;;;;;8.70;7.32;;;15.20;99.90;;;;;;5054996;28;20013;-70
2022/07/08 02:47:01;;;;;;;7.53;6.82;;;15.20;99.90;;;;;;5054785;28;20025;-69
2022/07/08 02:49:27;;;;;;;9.80;6.68;;;15.30;99.90;;;;;;5053632;28;20489;-76
2022/07/08 02:51:52;;;;;;;9.30;6.95;;;15.30;99.90;;;;;;5054504;28;20079;-76
2022/07/08 02:54:18;;;;;;;10.57;7.97;;;15.30;99.90;;;;;;5054581;28;20506;-76
2022/07/08 02:56:43;;;;;;;8.65;6.55;;;15.30;99.90;;;;;;5054673;28;20486;-71
2022/07/08 02:59:09;;;;;;;12.85;7.05;;;15.30;99.90;;;;;;5053312;28;20494;-70
2022/07/08 03:01:35;;;;;;;9.20;7.28;;;15.40;99.90;;;;;;5054524;28;20387;-70
2022/07/08 03:04:00;;;;;;;8.43;6.63;;;15.40;99.90;;;;;;5053366;28;20025;-76
2022/07/08 03:06:26;;;;;;;8.88;6.18;;;15.40;99.90;;;;;;5054242;28;20025;-71
2022/07/08 03:08:52;;;;;;;7.80;5.95;;;15.30;99.90;;;;;;5054225;28;20531;-76
2022/07/08 03:11:17;;;;;;;8.70;6.68;;;15.40;99.90;;;;;;5054272;28;20163;-76
2022/07/08 03:13:43;;;;;;;8.00;6.03;;;15.30;99.90;;;;;;5054001;28;20020;-71
2022/07/08 03:16:09;;;;;;;9.25;6.32;;;15.30;99.90;;;;;;5053350;28;20037;-71
2022/07/08 03:18:35;;;;;;;7.43;6.35;;;15.30;99.90;;;;;;5052960;28;20020;-71
2022/07/08 03:21:03;;;;;;;7.10;6.32;;;15.30;99.90;;;;;;5054215;28;20064;-70
2022/07/08 03:23:29;;;;;;;7.63;6.28;;;15.30;99.90;;;;;;5054109;28;20017;-70
2022/07/08 03:25:55;;;;;;;8.32;6.35;;;15.30;99.90;;;;;;5054030;28;20032;-70
2022/07/08 03:28:21;;;;;;;7.25;6.38;;;15.40;99.90;;;;;;5052928;28;20021;-71
2022/07/08 03:30:46;;;;;;;7.43;6.65;;;15.30;99.90;;;;;;5053602;28;20048;-70
2022/07/08 03:33:12;;;;;;;7.45;6.75;;;15.30;99.90;;;;;;5052742;28;20437;-71
2022/07/08 03:35:38;;;;;;;8.93;6.68;;;15.40;99.90;;;;;;5052634;28;20048;-69
2022/07/08 03:38:04;;;;;;;8.23;6.68;;;15.40;99.90;;;;;;5052793;28;20383;-70
2022/07/08 03:43:14;;;;;;;6.85;6.13;;;15.30;99.90;;;;;;5054033;28;20543;-76
2022/07/08 03:45:39;;;;;;;7.93;6.78;;;15.30;99.90;;;;;;5053812;28;20104;-76
2022/07/08 03:48:05;;;;;;;7.13;6.45;;;15.30;99.90;;;;;;5053917;28;20386;-76
2022/07/08 03:50:31;;;;;;;7.75;6.80;;;15.20;99.90;;;;;;5053612;28;20033;-70
2022/07/08 03:52:57;;;;;;;9.07;7.15;;;15.30;99.90;;;;;;5053397;28;20021;-76
2022/07/08 03:55:24;;;;;;;9.55;7.43;;;15.30;99.90;;;;;;5053543;28;20092;-70
2022/07/08 03:57:49;;;;;;;9.02;6.53;;;15.30;99.90;;;;;;5053670;28;20104;-70
2022/07/08 04:00:15;;;;;;;6.90;6.20;;;15.30;99.90;;;;;;5053579;28;20484;-70
2022/07/08 04:02:41;;;;;;;8.48;6.57;;;15.30;99.90;;;;;;5065277;28;20111;-70
2022/07/08 04:05:07;;;;;;;8.18;6.10;;;15.30;99.90;;;;;;5073603;28;20030;-70
2022/07/08 04:07:34;;;;;;;8.82;7.18;;;15.30;99.90;;;;;;5073641;28;20409;-70
2022/07/08 04:10:00;;;;;;;7.15;6.47;;;15.30;99.90;;;;;;5073433;28;20035;-76
2022/07/08 04:12:25;;;;;;;6.75;6.05;;;15.40;99.90;;;;;;5073277;28;20095;-76
2022/07/08 04:14:51;;;;;;;6.43;5.78;;;15.50;99.90;;;;;;5073240;28;20028;-76
2022/07/08 04:17:17;;;;;;;6.28;5.13;;;15.50;99.90;;;;;;5073384;28;20027;-71
2022/07/08 04:19:42;;;;;;;6.32;5.72;;;15.60;99.90;;;;;;5071997;28;20086;-76
2022/07/08 04:22:08;;;;;;;5.20;4.78;;;15.60;99.90;;;;;;5071925;28;20531;-76
2022/07/08 04:24:34;;;;;;;7.88;5.85;;;15.70;99.90;;;;;;5073110;28;20042;-76
2022/07/08 04:27:00;;;;;;;7.78;5.30;;;15.70;99.90;;;;;;5073083;28;20024;-76
2022/07/08 04:29:26;;;;;;;6.75;5.53;;;15.70;99.90;;;;;;5073166;28;20497;-70
2022/07/08 04:31:51;;;;;;;6.25;4.93;;;15.80;99.90;;;;;;5073012;28;20066;-76
2022/07/08 04:34:17;;;;;;;8.18;6.30;;;15.80;99.90;;;;;;5073220;28;20100;-77
2022/07/08 04:36:43;;;;;;;5.90;4.35;;;15.90;99.90;;;;;;5073166;28;20088;-69
2022/07/08 04:39:08;;;;;;;6.22;5.30;;;15.90;99.90;;;;;;5073166;28;20043;-76
2022/07/08 04:41:34;;;;;;;5.90;5.30;;;15.90;99.90;;;;;;5073031;28;20055;-76
2022/07/08 04:44:00;;;;;;;6.18;5.00;;;16.00;99.90;;;;;;5071685;28;20044;-76
2022/07/08 04:46:25;;;;;;;6.22;5.57;;;16.00;99.90;;;;;;5073110;28;20171;-70
2022/07/08 04:48:52;;;;;;;5.82;5.35;;;16.00;99.90;;;;;;5072874;28;20517;-70
2022/07/08 04:51:17;;;;;;;6.10;5.22;;;16.00;99.90;;;;;;5071698;28;20037;-70
2022/07/08 04:53:43;;;;;;;10.77;5.10;;;16.00;99.90;;;;;;5061534;28;20031;-76
2022/07/08 04:56:09;;;;;;;5.68;4.95;;;16.10;99.90;;;;;;5049708;28;20029;-77
2022/07/08 04:58:34;;;;;;;6.13;5.47;;;16.20;99.90;;;;;;5039608;28;20049;-77
2022/07/08 05:01:00;;;;;;;7.30;5.90;;;16.20;99.90;;;;;;5051539;28;20028;-76
2022/07/08 05:03:26;;;;;;;6.20;5.70;;;16.30;99.90;;;;;;5072854;28;20040;-70
2022/07/08 05:05:51;;;;;;;6.25;4.90;;;16.40;99.90;;;;;;5072738;28;20028;-70
2022/07/08 05:08:17;;;;;;;5.53;5.03;;;16.40;99.90;;;;;;5072869;28;20096;-70
2022/07/08 05:10:43;;;;;;;6.25;5.65;;;16.40;99.90;;;;;;5072298;28;20459;-76
2022/07/08 05:13:09;;;;;;;6.13;5.53;;;16.50;99.90;;;;;;5044550;28;20026;-76
2022/07/08 05:15:35;;;;;;;8.20;6.35;;;16.50;99.90;;;;;;5037453;28;20057;-76
2022/07/08 05:18:00;;;;;;;6.85;6.25;;;16.60;99.90;;;;;;5032895;28;20022;-76
2022/07/08 05:20:26;;;;;;;6.93;6.32;;;16.50;99.90;;;;;;5047049;28;20059;-72
2022/07/08 05:22:52;;;;;;;7.05;5.70;;;16.60;99.90;;;;;;5052412;28;20100;-76
2022/07/08 05:25:18;;;;;;;6.45;5.85;;;16.70;99.90;;;;;;5051957;28;20029;-76
2022/07/08 05:27:43;;;;;;;7.20;5.60;;;16.80;99.90;;;;;;5052618;28;20021;-76
2022/07/08 05:30:10;;;;;;;6.20;5.20;;;16.80;99.90;;;;;;5052389;28;20032;-76
2022/07/08 05:32:37;;;;;;;7.93;5.95;;;16.90;99.90;;;;;;5037686;28;20446;-76
2022/07/08 05:35:05;;;;;;;7.80;5.90;;;16.80;99.90;;;;;;5033917;28;20037;-70
2022/07/08 05:37:31;;;;;;;6.55;5.90;;;16.80;99.90;;;;;;5060333;28;20033;-70
2022/07/08 05:39:57;;;;;;;6.50;5.88;;;16.90;99.90;;;;;;5061624;28;20175;-70
2022/07/08 05:42:23;;;;;;;9.50;6.20;;;17.00;99.90;;;;;;5059984;28;20029;-77
2022/07/08 05:44:49;;;;;;;8.02;7.05;;;17.10;99.90;;;;;;5055924;28;20545;-71
2022/07/08 05:47:15;;;;;;;8.07;6.97;;;17.10;99.90;;;;;;5044053;28;20024;-69
2022/07/08 05:49:44;;;;;;;9.63;7.28;;;17.20;99.90;;;;;;5045512;28;20091;-70
2022/07/08 05:52:10;;;;;;;13.00;7.65;;;17.30;99.90;;;;;;5071949;28;20036;-71
2022/07/08 05:54:37;;;;;;;12.13;7.68;;;17.30;99.90;;;;;;5061471;28;20485;-70
2022/07/08 05:57:03;;;;;;;7.97;7.28;;;17.50;99.90;;;;;;5074047;28;20036;-70
2022/07/08 05:59:29;;;;;;;8.60;7.75;;;17.60;99.90;;;;;;5074794;28;20040;-77
2022/07/08 06:01:55;;;;;;;8.98;8.07;;;17.60;99.90;;;;;;5066935;28;20052;-71
2022/07/08 06:04:21;;;;;;;12.02;8.13;;;17.60;99.90;;;;;;5074033;28;20036;-77
2022/07/08 06:06:47;;;;;;;7.95;7.15;;;17.60;99.90;;;;;;5076332;28;20035;-77
2022/07/08 06:09:12;;;;;;;8.80;7.22;;;17.70;99.90;;;;;;5064816;28;20029;-72
2022/07/08 06:11:38;;;;;;;8.50;7.60;;;17.70;99.90;;;;;;5074584;28;20389;-71
2022/07/08 06:14:04;;;;;;;11.63;7.80;;;17.90;99.90;;;;;;5075276;28;20041;-71
2022/07/08 06:16:30;;;;;;;11.45;8.40;;;18.00;99.90;;;;;;5067485;28;20374;-77
2022/07/08 06:18:56;;;;;;;9.63;8.63;;;17.90;99.90;;;;;;5061897;28;20104;-71
2022/07/08 06:21:21;;;;;;;10.23;8.18;;;17.90;99.90;;;;;;5057685;28;20469;-71
2022/07/08 06:23:47;;;;;;;9.35;8.43;;;17.90;99.90;;;;;;5075193;28;20138;-77
2022/07/08 06:26:13;;;;;;;10.40;8.98;;;17.90;99.90;;;;;;5073902;28;20021;-71
2022/07/08 06:28:39;;;;;;;11.77;8.35;;;18.00;99.90;;;;;;5074188;28;20435;-77
2022/07/08 06:31:05;;;;;;;9.52;8.05;;;17.80;99.90;;;;;;5076410;28;20053;-71
2022/07/08 06:33:30;;;;;;;11.05;7.88;;;17.90;99.90;;;;;;5073080;28;20466;-71
2022/07/08 06:35:56;;;;;;;9.63;7.68;;;18.00;99.90;;;;;;5054831;28;20494;-71
2022/07/08 06:38:22;;;;;;;9.65;7.97;;;18.10;99.90;;;;;;5074853;28;20024;-71
2022/07/08 06:40:47;;;;;;;10.32;8.23;;;18.20;99.90;;;;;;5074300;28;20428;-77
2022/07/08 06:43:13;;;;;;;13.52;9.05;;;18.20;99.90;;;;;;5068708;28;20027;-71
2022/07/08 06:45:39;;;;;;;13.00;9.20;;;18.30;99.90;;;;;;5073801;28;20036;-76
2022/07/08 06:48:05;;;;;;;16.00;8.40;;;18.40;99.90;;;;;;5070958;28;20439;-77
2022/07/08 06:50:31;;;;;;;10.70;8.55;;;18.40;99.90;;;;;;5063164;28;20114;-77
2022/07/08 06:52:57;;;;;;;9.13;7.80;;;18.40;99.90;;;;;;5073298;28;20021;-70
2022/07/08 06:55:23;;;;;;;9.18;7.38;;;18.40;99.90;;;;;;5073717;28;20090;-71
2022/07/08 06:57:49;;;;;;;12.02;7.25;;;18.50;99.90;;;;;;5074193;28;20025;-72
2022/07/08 07:00:15;;;;;;;7.78;6.68;;;18.60;99.90;;;;;;5072873;28;20028;-70
2022/07/08 07:02:41;;;;;;;7.97;6.85;;;18.50;99.90;;;;;;5067047;28;20833;-71
2022/07/08 07:05:08;;;;;;;7.18;6.00;;;18.70;99.90;;;;;;5074001;28;20035;-77
2022/07/08 07:07:34;;;;;;;12.77;6.85;;;18.70;99.90;;;;;;5072739;28;20432;-73
2022/07/08 07:10:00;;;;;;;8.38;6.72;;;18.70;99.90;;;;;;5072142;28;20040;-77
2022/07/08 07:12:26;;;;;;;8.25;6.22;;;18.80;99.10;;;;;;5073789;28;20043;-77
2022/07/08 07:14:51;;;;;;;8.18;6.80;;;19.10;93.60;;;;;;5073098;28;20032;-77
2022/07/08 07:17:19;;;;;;;9.35;7.32;;;19.20;93.00;;;;;;5071865;28;20027;-71
2022/07/08 07:19:46;;;;;;;7.78;6.68;;;19.40;91.20;;;;;;5058108;28;20111;-77
2022/07/08 07:22:12;;;;;;;10.95;6.63;;;19.70;91.50;;;;;;5073702;28;20021;-77
2022/07/08 07:24:38;;;;;;;6.80;5.60;;;20.00;85.50;;;;;;5072756;28;20104;-71
2022/07/08 07:27:04;;;;;;;11.15;7.28;;;20.20;85.10;;;;;;5073635;28;20104;-76
2022/07/08 07:29:30;;;;;;;10.73;6.35;;;19.90;85.10;;;;;;5072870;28;20024;-77
2022/07/08 07:31:55;;;;;;;8.90;5.97;;;19.80;85.80;;;;;;5072623;28;20115;-71
2022/07/08 07:34:21;;;;;;;7.93;6.32;;;19.60;82.50;;;;;;5069322;28;20021;-71
2022/07/08 07:36:47;;;;;;;8.15;6.13;;;19.40;86.40;;;;;;5060612;28;20060;-77
2022/07/08 07:39:13;;;;;;;9.90;6.32;;;19.40;87.40;;;;;;5071799;28;20029;-71
2022/07/08 07:41:38;;;;;;;6.65;5.60;;;19.40;92.40;;;;;;5072530;28;20045;-77
2022/07/08 07:44:05;;;;;;;7.10;5.50;;;19.30;95.00;;;;;;5068434;28;20412;-77
2022/07/08 07:46:31;;;;;;;8.40;5.88;;;19.20;93.10;;;;;;5071052;28;20401;-71
2022/07/08 07:48:57;;;;;;;6.93;4.72;;;19.10;92.50;;;;;;5060384;28;20036;-77
2022/07/08 07:51:24;;;;;;;6.28;5.68;;;19.10;92.50;;;;;;5071587;28;20052;-71
2022/07/08 07:53:49;;;;;;;6.55;5.18;;;19.10;91.30;;;;;;5072800;28;20024;-77
2022/07/08 07:56:15;;;;;;;5.60;4.72;;;19.20;89.80;;;;;;5072815;28;20042;-71
2022/07/08 07:58:41;;;;;;;5.13;4.72;;;19.50;86.10;;;;;;5070224;28;20025;-71
2022/07/08 08:01:06;;;;;;;5.05;4.30;;;19.70;84.60;;;;;;5059427;28;20041;-77
2022/07/08 08:03:32;;;;;;;5.53;4.13;;;19.40;89.60;;;;;;5067583;28;20462;-77
2022/07/08 08:05:59;;;;;;;4.47;4.07;;;19.40;92.80;;;;;;5072392;28;20402;-71
2022/07/08 08:08:25;;;;;;;5.88;4.90;;;19.30;91.10;;;;;;5071275;28;20082;-77
2022/07/08 08:10:52;;;;;;;7.05;4.43;;;19.20;91.80;;;;;;5072209;28;20045;-71
2022/07/08 08:13:19;;;;;;;5.15;4.65;;;19.10;92.60;;;;;;5071409;28;20024;-77
2022/07/08 08:15:45;;;;;;;5.43;4.80;;;19.00;94.20;;;;;;5070799;28;20491;-71
2022/07/08 08:18:11;;;;;;;5.28;4.38;;;19.10;94.40;;;;;;5066296;28;20048;-71
2022/07/08 08:20:36;;;;;;;4.90;4.13;;;19.10;86.90;;;;;;5050644;28;20504;-71
2022/07/08 08:23:03;;;;;;;4.90;4.47;;;19.20;88.40;;;;;;5072702;28;20094;-77
2022/07/08 08:25:28;;;;;;;5.20;4.28;;;19.40;86.00;;;;;;5072029;28;20398;-71
2022/07/08 08:27:54;;;;;;;6.72;4.32;;;19.50;85.50;;;;;;5071075;28;20034;-71
2022/07/08 08:30:20;;;;;;;6.97;4.22;;;19.70;84.30;;;;;;5071913;28;20074;-77
2022/07/08 08:32:46;;;;;;;4.10;3.65;;;20.00;82.60;;;;;;5071668;28;20552;-77
2022/07/08 08:35:12;;;;;;;4.60;3.95;;;20.10;76.90;;;;;;5070481;28;20024;-77
2022/07/08 08:37:38;;;;;;;8.45;3.83;;;20.50;77.10;;;;;;5059197;28;20520;-71
2022/07/08 08:40:06;;;;;;;5.10;3.53;;;20.80;78.90;;;;;;5072320;28;20096;-71
2022/07/08 08:42:32;;;;;;;6.55;3.97;;;21.20;74.90;;;;;;5070696;28;20070;-77
2022/07/08 08:44:59;;;;;;;5.22;3.53;;;21.50;71.70;;;;;;5072206;28;20024;-71
2022/07/08 08:47:29;;;;;;;3.90;3.47;;;21.70;69.40;;;;;;5071901;28;20038;-77
2022/07/08 08:49:56;;;;;;;3.80;3.50;;;21.60;68.60;;;;;;5066951;28;20024;-76
2022/07/08 08:52:26;;;;;;;4.60;3.20;;;21.70;67.80;;;;;;5059720;28;20051;-70
2022/07/08 08:54:54;;;;;;;3.10;2.80;;;21.60;72.50;;;;;;5070626;28;20115;-77
2022/07/08 08:57:20;;;;;;;3.25;2.20;;;21.50;69.60;;;;;;5072290;28;20056;-77
2022/07/08 08:59:46;;;;;;;2.50;2.25;;;21.30;67.20;;;;;;5071853;28;20024;-77
2022/07/08 09:02:12;;;;;;;6.38;2.58;;;21.20;65.10;;;;;;5068488;28;20425;-77
2022/07/08 09:04:39;;;;;;;4.28;2.40;;;20.80;69.30;;;;;;5070411;28;20062;-71
2022/07/08 09:07:05;;;;;;;3.38;2.08;;;21.00;68.30;;;;;;5071958;28;20037;-71
2022/07/08 09:09:31;;;;;;;3.88;2.17;;;21.10;70.60;;;;;;5070503;28;20029;-71
2022/07/08 09:11:56;;;;;;;2.45;2.25;;;21.50;69.70;;;;;;5070244;28;20090;-77
2022/07/08 09:14:23;;;;;;;3.10;2.08;;;21.90;67.80;;;;;;5075118;28;20023;-77
2022/07/08 09:17:07;;;;;;;2.47;2.28;;;22.40;64.20;;;;;;5075071;28;20028;-77
2022/07/08 09:19:33;;;;;;;1.67;1.60;;;22.80;62.90;;;;;;5057087;28;20355;-77
2022/07/08 09:21:59;;;;;;;1.70;1.60;;;23.10;61.40;;;;;;5074311;28;20032;-71
2022/07/08 09:24:27;;;;;;;1.75;1.65;;;22.90;61.20;;;;;;5075634;28;20025;-77
2022/07/08 09:26:56;;;;;;;2.38;2.20;;;22.80;62.10;;;;;;5074083;28;20039;-77
2022/07/08 09:29:23;;;;;;;2.33;2.22;;;22.80;61.00;;;;;;5075585;28;20021;-76
2022/07/08 09:31:48;;;;;;;3.17;1.98;;;22.70;64.00;;;;;;5073084;28;20113;-71
2022/07/08 09:34:16;;;;;;;1.88;1.77;;;22.70;62.20;;;;;;5071338;28;20025;-71
2022/07/08 09:36:46;;;;;;;2.40;2.20;;;22.20;64.10;;;;;;5046936;28;20040;-71
2022/07/08 09:39:25;;;;;;;2.67;2.47;;;21.60;68.40;;;;;;5061222;28;20033;-77
2022/07/08 09:41:52;;;;;;;2.40;2.20;;;21.50;71.30;;;;;;5074734;28;20113;-77
2022/07/08 09:44:20;;;;;;;2.55;2.20;;;21.40;73.20;;;;;;5075413;28;20024;-71
2022/07/08 09:46:49;;;;;;;2.38;2.17;;;21.10;76.60;;;;;;5076089;28;20025;-77
2022/07/08 09:49:27;;;;;;;4.13;2.88;;;20.80;76.50;;;;;;5076083;28;20108;-77
2022/07/08 09:51:53;;;;;;;2.45;2.25;;;20.40;75.90;;;;;;5075970;28;20032;-77
2022/07/08 09:54:21;;;;;;;2.53;2.33;;;20.40;77.40;;;;;;5076031;28;20068;-71
2022/07/08 09:57:07;;;;;;;2.65;1.85;;;20.40;80.30;;;;;;5076012;28;20363;-71
2022/07/08 09:59:35;;;;;;;2.08;1.98;;;20.50;78.00;;;;;;5076110;28;20416;-76
2022/07/08 10:02:02;;;;;;;2.10;2.00;;;20.50;74.00;;;;;;5075909;28;20029;-72
2022/07/08 10:04:28;;;;;;;1.80;1.67;;;20.60;73.30;;;;;;5076065;28;20504;-72
2022/07/08 10:06:55;;;;;;;2.20;2.00;;;21.00;73.70;;;;;;5074384;28;20020;-71
2022/07/08 10:09:22;;;;;;;1.95;1.80;;;21.50;70.10;;;;;;5075920;28;20397;-72
2022/07/08 10:11:48;;;;;;;1.80;1.70;;;21.50;66.90;;;;;;5075704;28;20040;-71
2022/07/08 10:14:15;;;;;;;1.80;1.70;;;21.70;66.00;;;;;;5075819;28;20024;-76
2022/07/08 10:16:42;;;;;;;1.60;1.50;;;21.90;66.40;;;;;;5075464;28;20029;-71
2022/07/08 10:19:13;;;;;;;1.65;1.55;;;21.60;67.00;;;;;;5075678;28;20021;-77
2022/07/08 10:21:41;;;;;;;3.45;1.40;;;21.90;68.50;;;;;;5075729;28;20024;-77
2022/07/08 10:24:17;;;;;;;1.83;1.73;;;22.30;67.30;;;;;;5075196;28;20025;-76
2022/07/08 10:26:44;;;;;;;4.35;1.50;;;22.60;65.80;;;;;;5075123;28;20478;-77
2022/07/08 10:29:13;;;;;;;1.40;1.30;;;22.60;63.40;;;;;;5075430;28;20028;-77
2022/07/08 10:31:52;;;;;;;1.42;1.33;;;22.20;60.90;;;;;;5073949;28;20126;-71
2022/07/08 10:34:30;;;;;;;1.35;1.00;;;22.10;61.20;;;;;;5074125;28;20020;-76
2022/07/08 10:36:56;;;;;;;1.42;1.08;;;22.10;60.70;;;;;;5059501;28;20017;-77
2022/07/08 10:39:38;;;;;;;1.30;1.20;;;22.10;60.60;;;;;;5055083;28;20060;-71
2022/07/08 10:42:10;;;;;;;1.77;1.67;;;22.70;61.30;;;;;;5053822;28;20110;-71
2022/07/08 10:44:42;;;;;;;1.75;1.33;;;22.80;59.30;;;;;;5053712;28;20021;-71
2022/07/08 10:47:12;;;;;;;1.88;1.67;;;22.80;57.50;;;;;;5054802;28;20532;-77
2022/07/08 10:49:42;;;;;;;2.83;2.13;;;22.70;59.70;;;;;;5054889;28;20028;-77
2022/07/08 10:52:08;;;;;;;5.43;2.40;;;22.50;63.80;;;;;;5053407;28;20037;-77
2022/07/08 10:54:37;;;;;;;3.13;2.60;;;21.60;71.90;;;;;;5054989;28;20458;-71
2022/07/08 10:57:26;;;;;;;5.57;3.42;;;21.10;75.00;;;;;;5054744;28;20025;-71
2022/07/08 11:00:06;;;;;;;3.28;2.70;;;20.80;80.20;;;;;;5053773;28;20138;-75
2022/07/08 11:02:31;;;;;;;5.25;3.45;;;20.50;84.50;;;;;;5069298;28;20021;-71
2022/07/08 11:04:57;;;;;;;7.25;3.60;;;20.40;88.80;;;;;;5074788;28;20051;-72
2022/07/08 11:07:26;;;;;;;3.15;2.95;;;20.30;93.00;;;;;;5074814;28;20027;-76
2022/07/08 11:09:54;;;;;;;3.05;2.85;;;20.20;95.60;;;;;;5073389;28;20107;-76
2022/07/08 11:12:24;;;;;;;3.33;3.03;;;20.20;98.30;;;;;;5074527;28;20246;-77
2022/07/08 11:14:55;;;;;;;4.28;3.60;;;20.10;94.70;;;;;;5073120;28;20017;-71
2022/07/08 11:17:25;;;;;;;4.85;2.35;;;19.90;99.10;;;;;;5074547;28;20036;-77
2022/07/08 11:19:52;;;;;;;1.90;1.80;;;19.40;84.20;;;;;;5073160;28;20543;-71
2022/07/08 11:22:19;;;;;;;2.05;1.83;;;19.20;83.00;;;;;;5074289;28;20422;-71
2022/07/08 11:24:46;;;;;;;2.40;2.05;;;19.10;83.60;;;;;;5072885;28;20012;-77
2022/07/08 11:27:12;;;;;;;1.75;1.65;;;19.10;86.50;;;;;;5074283;28;20055;-71
2022/07/08 11:29:49;;;;;;;1.98;1.88;;;19.20;85.90;;;;;;5072864;28;20028;-71
2022/07/08 11:32:18;;;;;;;2.65;1.90;;;19.30;86.80;;;;;;5073056;28;20105;-77
2022/07/08 11:34:45;;;;;;;2.10;1.90;;;19.50;85.50;;;;;;5074220;28;20358;-77
2022/07/08 11:37:11;;;;;;;2.95;2.40;;;19.40;86.60;;;;;;5055531;28;20029;-72
2022/07/08 11:39:37;;;;;;;2.92;2.72;;;18.90;95.60;;;;;;5054052;28;20108;-77
2022/07/08 11:42:03;;;;;;;3.63;3.33;;;18.70;99.90;;;;;;5052935;28;20025;-76
2022/07/08 11:44:29;;;;;;;5.53;3.85;;;18.30;99.90;;;;;;5054000;28;20547;-71
2022/07/08 11:46:55;;;;;;;4.50;4.03;;;18.00;99.90;;;;;;5054066;28;20047;-77
2022/07/08 11:49:22;;;;;;;5.28;4.43;;;17.90;99.90;;;;;;5052674;28;20036;-71
2022/07/08 11:51:48;;;;;;;5.22;4.82;;;17.80;99.90;;;;;;5053818;28;20402;-71
2022/07/08 11:54:15;;;;;;;5.32;4.93;;;17.80;99.90;;;;;;5053885;28;20021;-76
2022/07/08 11:56:42;;;;;;;5.47;4.97;;;17.90;99.90;;;;;;5053973;28;20474;-77
2022/07/08 11:59:08;;;;;;;5.78;5.32;;;18.10;99.90;;;;;;5053646;28;20021;-71
2022/07/08 12:01:35;;;;;;;6.75;6.13;;;18.00;99.90;;;;;;5060657;28;20021;-77
2022/07/08 12:04:06;;;;;;;5.85;5.40;;;18.10;99.90;;;;;;5072414;28;20025;-72
2022/07/08 12:06:33;;;;;;;8.13;6.57;;;18.30;99.90;;;;;;5073929;28;20108;-71
2022/07/08 12:09:07;;;;;;;8.25;6.63;;;18.50;99.90;;;;;;5072144;28;20263;-71
2022/07/08 12:11:40;;;;;;;6.35;5.72;;;18.80;99.90;;;;;;5072486;28;20102;-71
2022/07/08 12:14:08;;;;;;;7.50;6.13;;;18.80;99.90;;;;;;5073703;28;20020;-77
2022/07/08 12:16:45;;;;;;;7.75;6.88;;;19.20;99.90;;;;;;5053839;28;20025;-71
2022/07/08 12:19:35;;;;;;;6.40;5.25;;;19.30;99.90;;;;;;5053464;28;20029;-77
2022/07/08 12:22:06;;;;;;;7.53;6.82;;;19.70;99.90;;;;;;5052332;28;20021;-77
2022/07/08 12:24:33;;;;;;;6.20;5.68;;;19.90;99.90;;;;;;5053495;28;20021;-77
2022/07/08 12:27:01;;;;;;;7.55;6.32;;;20.00;99.90;;;;;;5053293;28;20017;-77
2022/07/08 12:29:31;;;;;;;5.70;5.30;;;20.30;99.90;;;;;;5053446;28;20064;-72
2022/07/08 12:31:56;;;;;;;6.70;5.82;;;20.50;99.90;;;;;;5053352;28;20073;-71
2022/07/08 12:34:24;;;;;;;5.10;4.70;;;20.80;99.90;;;;;;5053256;28;20478;-76
2022/07/08 12:36:50;;;;;;;5.07;4.68;;;20.70;99.90;;;;;;5052083;28;20029;-77
2022/07/08 12:39:18;;;;;;;4.85;4.32;;;20.40;99.90;;;;;;5052000;28;20502;-77
2022/07/08 12:42:05;;;;;;;5.97;4.00;;;19.70;99.90;;;;;;5053309;28;20017;-77
2022/07/08 12:44:33;;;;;;;3.50;3.20;;;18.90;99.90;;;;;;5051914;28;20029;-77